Lancaster, Pennsylvania
Current Conditions -  °F | °C
As of 10:45 PM on Monday 22 Dec 2014 (Local Time) from KLNS Reporting Station
Haze Haze  
Wind Chill: 32°   Ceiling: 1700
Heat Index: 37°   Visibility: 2mi
Dew Point: 35°   Wind: 7mph
Humidity: 93%   Direction: 80°E
Pressure: 30.11"   Gusts: NA
Location:  40.04°N, 76.3°W
Report Text: KLNS 230345Z AUTO 08006KT 2SM BR SCT011 BKN017 OVC032 03/02 A3011 RMK AO2 RAE43 P0000 T00280017
Loading
Personal Weather Stations






























Interactive Weather Map New forecast layout! Learn more

10-Day Weather Forecast

Advertisements
Track Severe Weather on mobile